createdAt,value
2023-12-18T00:01:46.448Z,2.73
2023-12-18T00:04:14.601Z,2.83
2023-12-18T00:06:42.708Z,2.80
2023-12-18T00:09:10.749Z,3.60
2023-12-18T00:11:40.370Z,2.80
2023-12-18T00:14:08.603Z,2.73
2023-12-18T00:16:36.872Z,3.40
2023-12-18T00:19:06.207Z,3.63
2023-12-18T00:21:34.484Z,4.07
2023-12-18T00:24:02.646Z,4.47
2023-12-18T00:26:30.896Z,4.33
2023-12-18T00:29:00.303Z,3.73
2023-12-18T00:31:28.847Z,4.73
2023-12-18T00:33:57.042Z,2.53
2023-12-18T00:36:26.014Z,2.87
2023-12-18T00:38:54.065Z,4.70
2023-12-18T00:41:22.758Z,3.53
2023-12-18T00:43:51.970Z,6.57
2023-12-18T00:46:23.063Z,4.63
2023-12-18T00:48:51.690Z,7.33
2023-12-18T00:51:20.061Z,5.83
2023-12-18T00:53:49.029Z,5.57
2023-12-18T00:56:17.217Z,5.23
2023-12-18T00:58:45.745Z,10.80
2023-12-18T01:01:14.157Z,8.53
2023-12-18T01:03:43.697Z,6.77
2023-12-18T01:06:13.592Z,6.27
2023-12-18T01:08:41.688Z,5.23
2023-12-18T01:11:10.158Z,4.43
2023-12-18T01:13:38.280Z,3.07
2023-12-18T01:16:06.670Z,2.90
2023-12-18T01:18:34.951Z,2.10
2023-12-18T01:21:06.442Z,2.27
2023-12-18T01:23:34.763Z,2.73
2023-12-18T01:26:02.963Z,2.50
2023-12-18T01:28:30.982Z,2.00
2023-12-18T01:30:59.110Z,2.80
2023-12-18T01:33:27.692Z,3.10
2023-12-18T01:35:55.793Z,2.17
2023-12-18T01:38:25.197Z,1.57
2023-12-18T01:40:53.639Z,1.40
2023-12-18T01:43:26.240Z,4.17
2023-12-18T01:45:59.831Z,1.83
2023-12-18T01:48:29.915Z,1.43
2023-12-18T01:51:01.291Z,1.60
2023-12-18T01:53:36.495Z,2.53
2023-12-18T01:56:07.367Z,1.50
2023-12-18T01:58:37.044Z,1.63
2023-12-18T02:01:05.844Z,1.60
2023-12-18T02:03:37.042Z,1.63
2023-12-18T02:06:07.528Z,1.50
2023-12-18T02:08:37.807Z,1.33
2023-12-18T02:11:06.915Z,1.33
2023-12-18T02:13:35.015Z,1.87
2023-12-18T02:16:03.772Z,1.80
2023-12-18T02:18:31.986Z,2.43
2023-12-18T02:21:00.156Z,2.00
2023-12-18T02:23:29.966Z,2.23
2023-12-18T02:25:57.981Z,2.40
2023-12-18T02:28:27.150Z,2.47
2023-12-18T02:30:56.220Z,2.17
2023-12-18T02:33:24.487Z,3.07
2023-12-18T02:35:52.591Z,2.03
2023-12-18T02:38:20.657Z,3.47
2023-12-18T02:40:50.676Z,2.70
2023-12-18T02:43:18.769Z,3.37
2023-12-18T02:45:46.856Z,2.03
2023-12-18T02:48:15.289Z,2.77
2023-12-18T02:50:43.840Z,2.23
2023-12-18T02:53:13.106Z,2.60
2023-12-18T02:55:41.178Z,2.37
2023-12-18T02:58:10.845Z,2.77
2023-12-18T03:00:38.929Z,2.30
2023-12-18T03:03:07.089Z,2.10
2023-12-18T03:05:35.761Z,1.97
2023-12-18T03:08:04.004Z,2.73
2023-12-18T03:10:32.583Z,1.93
2023-12-18T03:13:00.744Z,1.40
2023-12-18T03:15:31.255Z,1.73
2023-12-18T03:17:59.895Z,1.60
2023-12-18T03:20:28.108Z,2.13
2023-12-18T03:22:56.526Z,2.33
2023-12-18T03:25:24.931Z,1.70
2023-12-18T03:27:53.310Z,1.53
2023-12-18T03:30:21.419Z,1.30
2023-12-18T03:32:50.876Z,1.33
2023-12-18T03:35:19.410Z,1.20
2023-12-18T03:37:47.405Z,1.67
2023-12-18T03:40:16.396Z,2.63
2023-12-18T03:42:44.906Z,2.43
2023-12-18T03:45:13.072Z,1.40
2023-12-18T03:47:41.816Z,1.57
2023-12-18T03:50:11.899Z,1.30
2023-12-18T03:52:40.007Z,1.70
2023-12-18T03:55:09.099Z,1.60
2023-12-18T03:57:37.615Z,1.70
2023-12-18T04:00:07.714Z,1.70
2023-12-18T04:02:40.488Z,1.97
2023-12-18T04:05:11.603Z,1.83
2023-12-18T04:07:40.025Z,2.40
2023-12-18T04:10:10.603Z,1.40
2023-12-18T04:12:38.705Z,1.73
2023-12-18T04:15:09.295Z,1.70
2023-12-18T04:17:37.874Z,1.60
2023-12-18T04:20:08.067Z,1.80
2023-12-18T04:22:37.551Z,2.17
2023-12-18T04:25:06.795Z,2.30
2023-12-18T04:27:34.931Z,2.00
2023-12-18T04:30:04.471Z,1.73
2023-12-18T04:32:32.815Z,2.33
2023-12-18T04:35:01.364Z,1.77
2023-12-18T04:37:29.856Z,2.00
2023-12-18T04:39:59.629Z,2.10
2023-12-18T04:42:27.770Z,2.53
2023-12-18T04:44:56.703Z,45.20
2023-12-18T04:47:24.787Z,45.33
2023-12-18T04:49:53.761Z,55.20
2023-12-18T04:52:21.899Z,37.30
2023-12-18T04:54:51.006Z,41.53
2023-12-18T04:57:20.895Z,38.90
2023-12-18T04:59:49.239Z,28.53
2023-12-18T05:02:17.286Z,26.30
2023-12-18T05:04:46.259Z,19.57
2023-12-18T05:07:14.345Z,42.03
2023-12-18T05:09:43.749Z,70.77
2023-12-18T05:12:13.026Z,81.00
2023-12-18T05:14:42.591Z,44.20
2023-12-18T05:17:10.917Z,44.90
2023-12-18T05:19:39.027Z,39.47
2023-12-18T05:22:07.169Z,37.33
2023-12-18T05:24:35.517Z,39.70
2023-12-18T05:27:04.118Z,35.97
2023-12-18T05:29:32.489Z,39.57
2023-12-18T05:32:02.229Z,32.43
2023-12-18T05:34:31.222Z,17.00
2023-12-18T05:37:00.457Z,13.77
2023-12-18T05:39:29.331Z,18.30
2023-12-18T05:41:57.414Z,10.97
2023-12-18T05:44:25.907Z,8.80
2023-12-18T05:46:54.074Z,9.27
2023-12-18T05:49:23.533Z,5.90
2023-12-18T05:51:52.268Z,20.00
2023-12-18T05:54:20.939Z,7.20
2023-12-18T05:56:49.269Z,3.90
2023-12-18T05:59:17.788Z,5.97
2023-12-18T06:01:46.318Z,9.87
2023-12-18T06:04:14.442Z,12.73
2023-12-18T06:06:44.638Z,11.47
2023-12-18T06:09:12.766Z,36.23
2023-12-18T06:11:41.125Z,20.97
2023-12-18T06:14:09.169Z,12.57
2023-12-18T06:16:37.230Z,12.00
2023-12-18T06:19:05.747Z,10.63
2023-12-18T06:21:38.632Z,8.73
2023-12-18T06:24:09.137Z,5.87
2023-12-18T06:26:37.404Z,5.20
2023-12-18T06:29:05.805Z,5.90
2023-12-18T06:31:35.223Z,4.10
2023-12-18T06:34:05.023Z,3.50
2023-12-18T06:36:33.738Z,4.23
2023-12-18T06:39:01.804Z,3.70
2023-12-18T06:41:31.241Z,2.60
2023-12-18T06:43:59.597Z,6.47
2023-12-18T06:46:27.649Z,2.90
2023-12-18T06:48:57.681Z,4.30
2023-12-18T06:51:25.875Z,3.53
2023-12-18T06:53:54.330Z,5.30
2023-12-18T06:56:23.490Z,3.93
2023-12-18T06:58:52.988Z,3.90
2023-12-18T07:01:21.821Z,3.00
2023-12-18T07:03:50.035Z,3.97
2023-12-18T07:06:19.121Z,4.67
2023-12-18T07:08:47.411Z,3.93
2023-12-18T07:11:15.829Z,6.03
2023-12-18T07:13:44.260Z,7.47
2023-12-18T07:16:21.784Z,6.07
2023-12-18T07:18:50.186Z,4.63
2023-12-18T07:21:19.442Z,4.00
2023-12-18T07:23:47.523Z,4.07
2023-12-18T07:26:15.991Z,4.40
2023-12-18T07:28:46.499Z,5.33
2023-12-18T07:31:15.999Z,5.67
2023-12-18T07:33:44.665Z,4.60
2023-12-18T07:36:13.541Z,4.23
2023-12-18T07:38:41.564Z,7.07
2023-12-18T07:41:09.603Z,6.97
2023-12-18T07:43:38.135Z,8.73
2023-12-18T07:46:06.250Z,9.20
2023-12-18T07:48:35.895Z,8.33
2023-12-18T07:51:04.405Z,6.70
2023-12-18T07:53:32.420Z,11.17
2023-12-18T07:56:00.517Z,12.87
2023-12-18T07:58:28.568Z,11.37
2023-12-18T08:00:57.271Z,19.27
2023-12-18T08:03:25.710Z,12.83
2023-12-18T08:05:55.308Z,13.67
2023-12-18T08:08:23.885Z,17.00
2023-12-18T08:10:51.904Z,25.77
2023-12-18T08:13:19.947Z,27.07
2023-12-18T08:15:48.447Z,40.23
2023-12-18T08:18:17.221Z,34.63
2023-12-18T08:20:47.137Z,24.07
2023-12-18T08:23:16.806Z,11.70
2023-12-18T08:25:45.511Z,14.50
2023-12-18T08:28:13.636Z,11.20
2023-12-18T08:30:43.280Z,12.03
2023-12-18T08:33:11.645Z,7.03
2023-12-18T08:35:40.092Z,6.93
2023-12-18T08:38:08.157Z,6.23
2023-12-18T08:40:37.535Z,4.80
2023-12-18T08:43:06.226Z,3.97
2023-12-18T08:45:34.383Z,4.23
2023-12-18T08:48:02.843Z,5.67
2023-12-18T08:50:31.585Z,4.57
2023-12-18T08:52:59.710Z,6.23
2023-12-18T08:55:27.873Z,6.53
2023-12-18T08:57:57.559Z,11.50
2023-12-18T09:00:27.356Z,16.70
2023-12-18T09:02:56.125Z,14.30
2023-12-18T09:05:24.538Z,11.03
2023-12-18T09:07:52.751Z,13.37
2023-12-18T09:10:23.594Z,15.37
2023-12-18T09:12:53.519Z,9.20
2023-12-18T09:15:25.484Z,19.77
2023-12-18T09:17:53.540Z,17.03
2023-12-18T09:20:21.623Z,8.77
2023-12-18T09:22:51.569Z,9.20
2023-12-18T09:25:19.608Z,10.20
2023-12-18T09:27:48.533Z,8.97
2023-12-18T09:30:17.620Z,9.50
2023-12-18T09:32:47.355Z,9.27
2023-12-18T09:35:16.613Z,10.13
2023-12-18T09:37:44.726Z,16.30
2023-12-18T09:40:13.761Z,17.57
2023-12-18T09:42:42.845Z,14.20
2023-12-18T09:45:13.640Z,11.93
2023-12-18T09:47:42.194Z,13.87
2023-12-18T09:50:11.978Z,13.90
2023-12-18T09:52:46.094Z,8.67
2023-12-18T09:55:14.840Z,12.90
2023-12-18T09:57:45.463Z,9.83
2023-12-18T10:00:17.027Z,12.23
2023-12-18T10:02:46.444Z,9.67
2023-12-18T10:05:17.104Z,10.20
2023-12-18T10:07:45.145Z,17.07
2023-12-18T10:10:13.837Z,19.27
2023-12-18T10:12:42.700Z,24.73
2023-12-18T10:15:12.684Z,25.37
2023-12-18T10:17:42.707Z,23.23
2023-12-18T10:20:13.251Z,20.70
2023-12-18T10:22:43.607Z,17.93
2023-12-18T10:25:13.213Z,18.27
2023-12-18T10:27:44.264Z,21.97
2023-12-18T10:30:16.121Z,18.93
2023-12-18T10:32:48.367Z,18.10
2023-12-18T10:35:16.939Z,15.40
2023-12-18T10:37:50.632Z,9.37
2023-12-18T10:40:20.840Z,7.07
2023-12-18T10:43:06.611Z,7.27
2023-12-18T10:45:36.392Z,12.47
2023-12-18T10:48:08.234Z,11.10
2023-12-18T10:50:38.466Z,10.50
2023-12-18T10:53:10.852Z,15.00
2023-12-18T10:55:40.576Z,11.77
2023-12-18T10:58:11.308Z,12.90
2023-12-18T11:00:41.401Z,18.90
2023-12-18T11:03:10.846Z,14.63
2023-12-18T11:05:40.629Z,10.43
2023-12-18T11:08:10.151Z,12.70
2023-12-18T11:10:39.205Z,7.53
2023-12-18T11:13:27.789Z,6.27
2023-12-18T11:16:14.228Z,8.27
2023-12-18T11:19:08.792Z,6.30
2023-12-18T11:21:44.687Z,5.37
2023-12-18T11:24:14.949Z,3.53
2023-12-18T11:26:47.118Z,4.77
2023-12-18T11:29:35.199Z,3.10
2023-12-18T11:32:05.235Z,2.92
2023-12-18T11:34:33.565Z,3.47
2023-12-18T11:37:01.903Z,5.88
2023-12-18T11:39:40.383Z,4.25
2023-12-18T11:42:09.488Z,3.85
2023-12-18T11:44:38.944Z,4.13
2023-12-18T11:47:08.598Z,3.00
2023-12-18T11:49:38.646Z,3.38
2023-12-18T11:52:21.739Z,5.60
2023-12-18T11:54:51.159Z,2.78
2023-12-18T11:57:23.194Z,3.90
2023-12-18T11:59:52.519Z,5.47
2023-12-18T12:02:21.827Z,3.90
2023-12-18T16:11:02.647Z,9.63
2023-12-18T16:13:31.143Z,11.70
2023-12-18T16:15:59.287Z,12.33
2023-12-18T16:18:27.592Z,10.57
2023-12-18T16:20:55.814Z,10.30
2023-12-18T16:23:23.934Z,36.70
2023-12-18T16:25:54.630Z,25.07
2023-12-18T16:28:23.183Z,18.43
2023-12-18T16:30:57.035Z,28.40
2023-12-18T16:33:27.100Z,28.90
2023-12-18T16:35:56.200Z,27.20
2023-12-18T16:38:24.383Z,21.33
2023-12-18T16:40:55.918Z,16.30
2023-12-18T16:43:24.490Z,14.17
2023-12-18T16:45:52.659Z,17.37
2023-12-18T16:48:21.325Z,15.90
2023-12-18T16:50:50.748Z,18.67
2023-12-18T16:53:19.142Z,16.13
2023-12-18T16:55:49.959Z,16.67
2023-12-18T16:58:20.201Z,13.33
2023-12-18T17:00:48.483Z,11.77
2023-12-18T17:03:20.290Z,7.93
2023-12-18T17:05:48.823Z,8.30
2023-12-18T17:08:17.753Z,10.87
2023-12-18T17:10:47.229Z,22.70
2023-12-18T17:13:15.817Z,22.83
2023-12-18T17:15:46.124Z,11.73
2023-12-18T17:18:14.648Z,12.50
2023-12-18T17:20:44.145Z,16.30
2023-12-18T17:23:12.468Z,15.70
2023-12-18T17:25:40.599Z,27.53
2023-12-18T17:28:09.254Z,39.13
2023-12-18T17:30:37.683Z,36.33
2023-12-18T17:33:07.485Z,41.33
2023-12-18T17:35:36.069Z,42.83
2023-12-18T17:38:04.825Z,40.20
2023-12-18T17:40:34.253Z,33.47
2023-12-18T17:43:02.400Z,24.77
2023-12-18T17:45:31.377Z,17.33
2023-12-18T17:48:02.098Z,13.63
2023-12-18T17:50:31.621Z,19.60
2023-12-18T17:53:03.397Z,18.03
2023-12-18T17:55:31.751Z,11.93
2023-12-18T17:58:01.728Z,14.70
2023-12-18T18:00:30.082Z,18.80
2023-12-18T18:02:59.236Z,19.10
2023-12-18T18:05:29.195Z,27.53
2023-12-18T18:07:58.794Z,19.80
2023-12-18T18:10:28.220Z,14.83
2023-12-18T18:12:56.941Z,10.40
2023-12-18T18:15:26.004Z,8.47
2023-12-18T18:17:54.528Z,7.90
2023-12-18T18:20:23.274Z,10.37
2023-12-18T18:22:51.339Z,9.07
2023-12-18T18:25:21.245Z,22.77
2023-12-18T18:27:52.326Z,15.53
2023-12-18T18:30:23.964Z,14.57
2023-12-18T18:33:13.741Z,16.47
2023-12-18T18:35:42.615Z,20.00
2023-12-18T18:38:10.748Z,13.67
2023-12-18T18:40:41.572Z,12.53
2023-12-18T18:43:10.079Z,23.70
2023-12-18T18:45:39.818Z,13.40
2023-12-18T18:48:08.481Z,15.03
2023-12-18T18:50:37.273Z,13.13
2023-12-18T18:53:08.964Z,17.10
2023-12-18T18:55:37.220Z,16.17
2023-12-18T18:58:06.916Z,15.17
2023-12-18T19:00:35.179Z,15.20
2023-12-18T19:03:10.005Z,22.47
2023-12-18T19:05:44.640Z,40.43
2023-12-18T19:08:12.681Z,40.77
2023-12-18T19:10:42.963Z,30.50
2023-12-18T19:13:12.442Z,26.97
2023-12-18T19:15:41.533Z,27.63
2023-12-18T19:18:09.626Z,31.43
2023-12-18T19:20:40.982Z,32.20
2023-12-18T19:23:09.335Z,32.00
2023-12-18T19:25:37.956Z,30.83
2023-12-18T19:28:07.146Z,19.77
2023-12-18T19:30:37.747Z,14.37
2023-12-18T19:33:06.668Z,11.30
2023-12-18T19:35:35.529Z,11.03
2023-12-18T19:38:03.841Z,11.87
2023-12-18T19:40:32.513Z,9.50
2023-12-18T19:43:00.935Z,10.70
2023-12-18T19:45:29.218Z,13.30
2023-12-18T19:51:12.094Z,11.27
2023-12-18T19:53:40.604Z,9.87
2023-12-18T19:56:10.438Z,16.00
2023-12-18T19:58:38.838Z,10.57
2023-12-18T20:01:07.681Z,15.00
2023-12-18T20:03:38.150Z,35.00
2023-12-18T20:06:08.577Z,22.80
2023-12-18T20:08:36.929Z,31.07
2023-12-18T20:11:08.412Z,49.80
2023-12-18T20:13:36.715Z,34.83
2023-12-18T20:16:06.227Z,38.77
2023-12-18T20:18:35.238Z,23.57
2023-12-18T20:21:05.092Z,28.93
2023-12-18T20:23:33.662Z,30.47
2023-12-18T20:26:05.451Z,32.97
2023-12-18T20:28:34.109Z,37.47
2023-12-18T20:31:03.922Z,17.83
2023-12-18T20:33:32.170Z,36.80
2023-12-18T20:36:00.535Z,38.63
2023-12-18T20:38:30.348Z,32.50
2023-12-18T20:40:59.589Z,28.23
2023-12-18T20:43:28.777Z,25.77
2023-12-18T20:45:56.930Z,15.90
2023-12-18T20:48:25.739Z,14.67
2023-12-18T20:50:55.291Z,17.20
2023-12-18T20:53:24.693Z,16.93
2023-12-18T20:55:54.181Z,128.27
2023-12-18T20:58:22.829Z,102.43
2023-12-18T21:00:51.410Z,70.37
2023-12-18T21:03:20.369Z,97.63
2023-12-18T21:05:49.301Z,79.50
2023-12-18T21:08:20.770Z,82.60
2023-12-18T21:10:48.828Z,70.70
2023-12-18T21:13:19.107Z,79.50
2023-12-18T21:15:47.860Z,73.17
2023-12-18T21:18:16.353Z,58.37
2023-12-18T21:20:45.147Z,43.47
2023-12-18T21:23:13.278Z,46.77
2023-12-18T21:25:41.432Z,38.93
2023-12-18T21:28:09.926Z,17.13
2023-12-18T21:30:39.600Z,10.23
2023-12-18T21:33:08.409Z,6.93
2023-12-18T21:35:36.524Z,6.53
2023-12-18T21:38:05.105Z,4.80
2023-12-18T21:40:33.204Z,5.77
2023-12-18T21:43:01.358Z,4.70
2023-12-18T21:45:29.766Z,5.53
2023-12-18T21:47:59.628Z,4.83
2023-12-18T21:50:28.346Z,5.00
2023-12-18T21:52:56.419Z,5.03
2023-12-18T21:55:24.967Z,24.97
2023-12-18T21:57:53.061Z,22.63
2023-12-18T22:00:23.652Z,20.13
2023-12-18T22:02:51.863Z,18.37
2023-12-18T22:05:22.245Z,12.13
2023-12-18T22:07:50.444Z,9.97
2023-12-18T22:10:18.664Z,5.97
2023-12-18T22:12:47.073Z,4.97
2023-12-18T22:15:16.229Z,5.17
2023-12-18T22:17:44.458Z,5.80
2023-12-18T22:20:13.470Z,5.60
2023-12-18T22:22:43.554Z,7.37
2023-12-18T22:25:12.275Z,13.23
2023-12-18T22:27:40.714Z,37.80
2023-12-18T22:30:10.213Z,29.43
2023-12-18T22:32:38.600Z,17.47
2023-12-18T22:35:07.222Z,32.60
2023-12-18T22:37:35.619Z,26.20
2023-12-18T22:40:05.726Z,13.10
2023-12-18T22:42:34.360Z,8.33
2023-12-18T22:45:02.553Z,7.60
2023-12-18T22:47:30.665Z,5.77
2023-12-18T22:49:58.858Z,5.63
2023-12-18T22:52:27.395Z,4.20
2023-12-18T22:54:55.592Z,5.30
2023-12-18T22:57:25.524Z,5.90
2023-12-18T22:59:53.626Z,5.53
2023-12-18T23:02:22.004Z,6.03
2023-12-18T23:04:50.158Z,4.17
2023-12-18T23:07:18.264Z,3.77
2023-12-18T23:09:46.688Z,3.90
2023-12-18T23:12:14.754Z,4.63
2023-12-18T23:14:44.124Z,3.40
2023-12-18T23:17:12.468Z,4.83
2023-12-18T23:19:40.627Z,6.37
2023-12-18T23:22:09.166Z,5.00
2023-12-18T23:24:38.337Z,6.13
2023-12-18T23:27:07.158Z,6.13
2023-12-18T23:29:35.227Z,4.67
2023-12-18T23:32:05.294Z,4.33
2023-12-18T23:34:33.563Z,4.07
2023-12-18T23:37:01.718Z,3.70
2023-12-18T23:39:29.879Z,3.53
2023-12-18T23:41:58.146Z,3.90
2023-12-18T23:44:26.574Z,3.53
2023-12-18T23:46:55.105Z,3.20
2023-12-18T23:49:24.912Z,4.37
2023-12-18T23:51:53.570Z,3.90
2023-12-18T23:54:21.751Z,4.80
2023-12-18T23:56:50.239Z,3.40
2023-12-18T23:59:18.321Z,3.57
